Time;durP1;ratioP1;P1;durP2;ratioP2;P2;SDS_P1;SDS_P2;PMS_P1;PMS_P2;Temp;Humidity;BMP_temperature;BMP_pressure;BME280_temperature;BME280_humidity;BME280_pressure;Samples;Min_cycle;Max_cycle;Signal;HPM_P1;HPM_P2
2023/01/12 00:00:56;;;;;;;5.35;2.83;;;8.60;99.90;;;;;;5090905;28;20398;-73
2023/01/12 00:03:22;;;;;;;5.90;1.90;;;8.60;99.90;;;;;;5090055;28;20412;-73
2023/01/12 00:05:47;;;;;;;5.97;1.88;;;8.60;99.90;;;;;;5090931;28;20433;-74
2023/01/12 00:08:13;;;;;;;5.80;2.40;;;8.60;99.90;;;;;;5090815;28;20386;-74
2023/01/12 00:10:38;;;;;;;9.17;2.40;;;8.60;99.90;;;;;;5090534;28;20442;-74
2023/01/12 00:13:03;;;;;;;8.47;2.20;;;8.60;99.90;;;;;;5089942;28;20382;-74
2023/01/12 00:18:13;;;;;;;7.63;2.00;;;8.60;99.90;;;;;;5091020;28;20419;-74
2023/01/12 00:20:45;;;;;;;6.73;2.63;;;8.70;99.90;;;;;;5091026;28;20386;-74
2023/01/12 00:23:11;;;;;;;7.03;2.03;;;8.70;99.90;;;;;;5089925;28;20378;-74
2023/01/12 00:25:36;;;;;;;9.03;2.10;;;8.70;99.90;;;;;;5072442;28;20401;-74
2023/01/12 00:28:02;;;;;;;4.73;2.20;;;8.70;98.20;;;;;;5090459;28;20390;-74
2023/01/12 00:30:27;;;;;;;6.27;2.27;;;8.70;99.70;;;;;;5090775;28;20713;-73
2023/01/12 00:32:53;;;;;;;8.10;2.20;;;8.70;99.90;;;;;;5088349;28;20400;-73
2023/01/12 00:35:18;;;;;;;8.18;1.92;;;8.60;99.90;;;;;;5090257;28;20393;-72
2023/01/12 00:37:44;;;;;;;9.27;2.50;;;8.70;95.60;;;;;;5090448;28;20384;-73
2023/01/12 00:40:10;;;;;;;9.33;1.90;;;8.70;98.50;;;;;;5090624;28;20435;-73
2023/01/12 00:45:20;;;;;;;8.70;1.90;;;8.50;99.90;;;;;;5090627;28;20451;-73
2023/01/12 00:47:45;;;;;;;6.07;2.33;;;8.50;92.60;;;;;;5090352;28;20406;-74
2023/01/12 00:50:11;;;;;;;6.83;2.00;;;8.50;99.90;;;;;;5090626;28;20435;-73
2023/01/12 00:52:36;;;;;;;4.90;2.00;;;8.60;54.30;;;;;;5089798;28;20378;-73
2023/01/12 00:55:02;;;;;;;5.18;2.00;;;8.60;66.80;;;;;;5090170;28;20756;-73
2023/01/12 00:57:28;;;;;;;7.78;2.30;;;8.60;65.20;;;;;;5089735;28;20404;-73
2023/01/12 00:59:55;;;;;;;8.48;2.25;;;8.50;99.90;;;;;;5090301;28;20473;-73
2023/01/12 01:02:21;;;;;;;7.00;2.20;;;8.60;68.20;;;;;;5090295;28;20389;-73
2023/01/12 01:04:47;;;;;;;7.65;2.20;;;8.60;58.50;;;;;;5089019;28;20386;-73
2023/01/12 01:07:14;;;;;;;6.90;2.10;;;8.50;89.30;;;;;;5089678;28;20452;-72
2023/01/12 01:09:40;;;;;;;8.38;1.73;;;8.50;69.80;;;;;;5070513;28;20387;-73
2023/01/12 01:12:06;;;;;;;7.55;1.90;;;8.50;70.20;;;;;;5069939;28;20391;-73
2023/01/12 01:14:31;;;;;;;6.60;2.00;;;8.40;87.50;;;;;;5069012;28;20547;-73
2023/01/12 01:16:57;;;;;;;9.10;3.00;;;8.50;55.40;;;;;;5069883;28;20371;-73
2023/01/12 01:19:23;;;;;;;7.82;2.05;;;8.50;48.80;;;;;;5088253;28;20871;-73
2023/01/12 01:21:48;;;;;;;6.45;2.00;;;8.50;50.00;;;;;;5071746;28;20401;-73
2023/01/12 01:24:14;;;;;;;8.40;2.00;;;8.50;29.80;;;;;;5070738;28;21013;-72
2023/01/12 01:26:41;;;;;;;5.27;1.77;;;8.50;95.50;;;;;;5089445;28;21225;-73
2023/01/12 01:29:07;;;;;;;8.30;1.80;;;8.50;73.10;;;;;;5089694;28;20468;-73
2023/01/12 01:31:33;;;;;;;8.75;2.55;;;8.50;49.70;;;;;;5089725;28;20879;-73
2023/01/12 01:33:58;;;;;;;7.10;2.10;;;8.60;27.90;;;;;;5089121;28;20416;-72
2023/01/12 01:36:24;;;;;;;7.13;1.90;;;8.60;26.20;;;;;;5123718;22;20767;-72
2023/01/12 01:38:50;;;;;;;6.50;1.95;;;8.60;32.80;;;;;;5109861;28;20400;-72
2023/01/12 01:41:21;;;;;;;6.07;2.28;;;8.60;27.50;;;;;;5109780;28;20462;-72
2023/01/12 01:43:53;;;;;;;7.45;2.30;;;8.60;1.00;;;;;;5109260;28;20426;-72
2023/01/12 01:46:39;;;;;;;9.05;1.73;;;8.70;1.00;;;;;;5095539;28;20389;-72
2023/01/12 01:49:36;;;;;;;6.70;1.85;;;8.70;1.00;;;;;;5071795;28;20391;-72
2023/01/12 01:52:07;;;;;;;7.97;2.30;;;8.80;1.00;;;;;;5061970;28;20490;-72
2023/01/12 01:54:48;;;;;;;6.65;2.40;;;8.80;1.00;;;;;;5068561;28;20380;-72
2023/01/12 01:57:14;;;;;;;8.20;2.10;;;8.80;1.00;;;;;;5069760;28;20873;-73
2023/01/12 01:59:43;;;;;;;7.38;2.13;;;8.90;1.00;;;;;;5083879;28;20828;-73
2023/01/12 02:02:10;;;;;;;5.93;1.40;;;8.90;1.00;;;;;;5089684;28;20439;-72
2023/01/12 02:04:35;;;;;;;6.40;1.90;;;8.90;1.00;;;;;;5088814;28;20435;-73
2023/01/12 02:07:02;;;;;;;6.50;1.70;;;8.80;1.00;;;;;;5089029;28;20398;-73
2023/01/12 02:09:29;;;;;;;9.80;2.70;;;8.90;1.00;;;;;;5072546;28;20453;-73
2023/01/12 02:18:09;;;;;;;9.10;2.50;;;8.90;1.00;;;;;;5085218;28;20458;-73
2023/01/12 02:20:52;;;;;;;8.03;2.03;;;8.80;1.00;;;;;;5092876;28;20406;-73
2023/01/12 02:23:27;;;;;;;5.72;1.40;;;8.80;1.00;;;;;;5092123;28;20469;-73
2023/01/12 02:26:35;;;;;;;14.25;2.60;;;8.80;1.00;;;;;;5092726;28;20398;-73
2023/01/12 02:29:28;;;;;;;6.15;2.10;;;8.80;1.00;;;;;;5085589;28;20740;-73
2023/01/12 02:32:06;;;;;;;6.80;2.03;;;8.80;1.00;;;;;;5092880;28;20393;-73
2023/01/12 02:34:57;;;;;;;14.18;2.40;;;8.80;1.00;;;;;;5091744;28;20378;-73
2023/01/12 02:37:45;;;;;;;9.57;2.38;;;8.80;1.00;;;;;;5084886;28;20398;-72
2023/01/12 02:40:35;;;;;;;7.38;1.70;;;8.80;1.00;;;;;;5092001;28;20398;-73
2023/01/12 02:43:16;;;;;;;8.73;2.20;;;8.80;1.00;;;;;;5062118;28;20759;-72
2023/01/12 02:46:02;;;;;;;7.47;1.80;;;8.80;1.00;;;;;;5092702;28;20759;-73
2023/01/12 02:48:36;;;;;;;8.98;2.10;;;8.80;1.00;;;;;;5092639;28;20379;-73
2023/01/12 02:51:12;;;;;;;4.28;1.60;;;8.80;1.00;;;;;;5092215;28;20513;-72
2023/01/12 02:53:47;;;;;;;8.15;2.00;;;8.80;1.00;;;;;;5091398;28;20382;-73
2023/01/12 02:56:18;;;;;;;5.63;1.70;;;8.70;1.00;;;;;;5092143;28;20852;-73
2023/01/12 02:58:48;;;;;;;6.55;2.10;;;8.80;1.00;;;;;;5092062;28;20378;-73
2023/01/12 03:01:16;;;;;;;8.27;1.90;;;8.80;1.00;;;;;;5092447;28;20457;-72
2023/01/12 03:03:42;;;;;;;9.02;2.50;;;8.70;1.00;;;;;;5091130;28;20390;-72
2023/01/12 03:06:08;;;;;;;7.80;2.30;;;8.70;1.00;;;;;;5091683;28;20406;-73
2023/01/12 03:08:37;;;;;;;4.88;1.50;;;8.70;1.00;;;;;;5063497;28;20400;-73
2023/01/12 03:11:14;;;;;;;6.05;1.80;;;8.70;1.00;;;;;;5085957;28;20386;-72
2023/01/12 03:13:47;;;;;;;9.38;2.90;;;8.70;1.00;;;;;;5090569;28;20394;-72
2023/01/12 03:16:17;;;;;;;6.47;2.70;;;8.70;1.00;;;;;;5091438;28;20401;-73
2023/01/12 03:18:57;;;;;;;6.80;1.67;;;8.60;1.00;;;;;;5091899;28;20386;-73
2023/01/12 03:21:32;;;;;;;7.43;2.15;;;8.70;1.00;;;;;;5090943;28;20405;-73
2023/01/12 03:23:58;;;;;;;7.50;2.33;;;8.70;1.00;;;;;;5091248;28;20788;-73
2023/01/12 03:26:26;;;;;;;8.80;2.88;;;8.70;1.00;;;;;;5073207;28;20402;-72
2023/01/12 03:28:58;;;;;;;9.85;2.20;;;8.70;1.00;;;;;;5091587;28;20466;-72
2023/01/12 03:31:24;;;;;;;6.60;2.13;;;8.80;1.00;;;;;;5072907;28;20390;-73
2023/01/12 03:33:50;;;;;;;6.07;1.50;;;8.80;1.00;;;;;;5090809;28;20408;-72
2023/01/12 03:36:42;;;;;;;6.20;2.50;;;8.80;1.00;;;;;;5090939;28;20899;-72
2023/01/12 03:39:12;;;;;;;5.28;1.90;;;8.80;1.00;;;;;;5073142;28;20405;-72
2023/01/12 03:41:44;;;;;;;3.78;1.52;;;8.80;1.00;;;;;;5091243;28;20453;-72
2023/01/12 03:44:18;;;;;;;7.20;1.92;;;8.80;1.00;;;;;;5090365;28;20386;-72
2023/01/12 03:46:53;;;;;;;5.88;2.10;;;8.80;1.00;;;;;;5091042;28;20413;-72
2023/01/12 03:49:39;;;;;;;5.43;1.67;;;8.90;1.00;;;;;;5070910;28;20383;-72
2023/01/12 03:52:06;;;;;;;5.63;1.63;;;8.80;1.00;;;;;;5084645;28;20880;-72
2023/01/12 03:54:35;;;;;;;6.75;1.90;;;8.90;1.00;;;;;;5090220;28;20892;-73
2023/01/12 03:57:02;;;;;;;4.70;1.60;;;8.80;1.00;;;;;;5090858;28;20392;-72
2023/01/12 03:59:27;;;;;;;6.28;1.52;;;8.90;99.90;;;;;;5090873;28;20443;-72
2023/01/12 04:01:53;;;;;;;3.90;1.20;;;8.90;1.00;;;;;;5090672;28;20390;-72
2023/01/12 04:04:19;;;;;;;7.00;1.80;;;8.90;99.90;;;;;;5089875;28;20440;-72
2023/01/12 04:06:44;;;;;;;8.02;2.40;;;8.90;1.00;;;;;;5090260;28;20750;-72
2023/01/12 04:09:10;;;;;;;5.95;1.90;;;8.90;1.00;;;;;;5075438;28;20380;-72
2023/01/12 04:14:19;;;;;;;9.02;1.67;;;8.90;1.00;;;;;;5075236;28;20451;-72
2023/01/12 04:16:45;;;;;;;7.20;1.80;;;8.90;1.00;;;;;;5090428;28;20921;-72
2023/01/12 04:19:11;;;;;;;5.70;1.95;;;8.90;99.90;;;;;;5090525;28;20377;-72
2023/01/12 04:24:21;;;;;;;9.82;1.80;;;9.00;99.90;;;;;;5086462;28;20930;-73
2023/01/12 04:26:46;;;;;;;6.18;1.67;;;8.90;99.90;;;;;;5088085;28;20398;-73
2023/01/12 04:29:12;;;;;;;7.93;1.80;;;9.00;99.90;;;;;;5088560;28;20828;-74
2023/01/12 04:31:37;;;;;;;6.60;1.80;;;9.00;99.90;;;;;;5088697;28;20382;-73
2023/01/12 04:34:03;;;;;;;5.13;1.60;;;9.00;99.90;;;;;;5087537;28;20769;-74
2023/01/12 04:36:28;;;;;;;4.50;1.93;;;9.00;99.90;;;;;;5088781;28;20409;-74
2023/01/12 04:38:54;;;;;;;6.93;1.38;;;9.00;99.90;;;;;;5090005;28;20800;-74
2023/01/12 04:41:20;;;;;;;5.53;2.00;;;9.00;99.90;;;;;;5090808;28;20405;-75
2023/01/12 04:43:45;;;;;;;7.63;1.80;;;8.90;99.90;;;;;;5090042;28;20386;-73
2023/01/12 04:46:11;;;;;;;6.67;2.10;;;9.00;99.90;;;;;;5090572;28;20764;-74
2023/01/12 04:48:38;;;;;;;4.77;1.40;;;9.00;99.90;;;;;;5090378;28;20473;-74
2023/01/12 04:51:04;;;;;;;6.97;1.60;;;8.90;99.90;;;;;;5090733;28;20410;-73
2023/01/12 04:53:29;;;;;;;4.50;1.48;;;9.00;99.90;;;;;;5090094;28;20401;-75
2023/01/12 04:55:55;;;;;;;4.82;2.00;;;8.90;1.00;;;;;;5072612;28;20382;-73
2023/01/12 04:58:21;;;;;;;6.85;1.80;;;8.90;1.00;;;;;;5090751;28;20413;-74
2023/01/12 05:00:47;;;;;;;4.20;1.30;;;8.90;99.90;;;;;;5090640;28;20745;-74
2023/01/12 05:03:13;;;;;;;7.10;1.97;;;8.90;1.00;;;;;;5089555;28;20394;-74
2023/01/12 05:05:39;;;;;;;5.55;1.80;;;8.80;1.00;;;;;;5090474;28;20386;-73
2023/01/12 05:10:56;;;;;;;6.30;1.80;;;8.80;1.00;;;;;;5070624;28;20375;-73
2023/01/12 05:13:26;;;;;;;6.60;1.80;;;8.80;1.00;;;;;;5069778;28;21077;-73
2023/01/12 05:15:51;;;;;;;8.02;1.73;;;8.80;1.00;;;;;;5070333;28;20379;-74
2023/01/12 05:18:17;;;;;;;3.40;1.30;;;8.80;1.00;;;;;;5083222;28;20958;-73
2023/01/12 05:20:42;;;;;;;7.80;1.60;;;8.80;1.00;;;;;;5090756;28;20800;-73
2023/01/12 05:23:08;;;;;;;7.43;1.90;;;8.70;1.00;;;;;;5089696;28;20435;-74
2023/01/12 05:25:33;;;;;;;12.73;2.33;;;8.70;1.00;;;;;;5090283;28;20473;-73
2023/01/12 05:27:59;;;;;;;6.70;1.40;;;8.70;1.00;;;;;;5090578;28;20378;-73
2023/01/12 05:30:28;;;;;;;9.63;1.73;;;8.70;1.00;;;;;;5088439;28;20398;-73
2023/01/12 05:32:53;;;;;;;5.75;2.00;;;8.60;1.00;;;;;;5088824;28;20393;-74
2023/01/12 05:35:19;;;;;;;4.07;1.50;;;8.50;1.00;;;;;;5090067;28;20485;-74
2023/01/12 05:37:45;;;;;;;6.15;1.50;;;8.50;1.00;;;;;;5090131;28;20374;-74
2023/01/12 05:40:11;;;;;;;6.50;1.67;;;8.60;1.00;;;;;;5071503;28;20429;-74
2023/01/12 05:45:22;;;;;;;2.35;1.08;;;8.70;99.90;;;;;;5092098;28;20403;-74
2023/01/12 05:47:55;;;;;;;7.40;1.33;;;8.80;99.90;;;;;;5093778;28;20493;-73
2023/01/12 05:50:21;;;;;;;5.10;1.67;;;8.80;99.90;;;;;;5094073;28;20400;-74
2023/01/12 05:52:50;;;;;;;5.80;1.30;;;8.80;99.90;;;;;;5093069;28;20382;-74
2023/01/12 05:55:16;;;;;;;4.43;1.40;;;8.80;99.90;;;;;;5093638;28;20473;-74
2023/01/12 05:57:41;;;;;;;3.70;1.60;;;8.80;99.90;;;;;;5094283;28;20511;-74
2023/01/12 06:00:07;;;;;;;7.57;2.10;;;8.80;99.90;;;;;;5093485;28;20397;-73
2023/01/12 06:02:33;;;;;;;7.00;1.30;;;8.80;99.90;;;;;;5092995;28;20418;-73
2023/01/12 06:04:58;;;;;;;7.20;1.57;;;8.80;99.90;;;;;;5093811;28;20378;-73
2023/01/12 06:07:24;;;;;;;3.97;1.37;;;8.90;99.90;;;;;;5093038;28;20486;-74
2023/01/12 06:09:49;;;;;;;4.85;1.40;;;8.90;99.90;;;;;;5079003;28;20431;-74
2023/01/12 06:14:59;;;;;;;5.22;1.15;;;9.00;99.90;;;;;;5093239;28;20803;-74
2023/01/12 06:17:25;;;;;;;8.90;2.03;;;9.00;99.90;;;;;;5093599;28;20382;-74
2023/01/12 06:19:50;;;;;;;5.05;1.40;;;8.90;99.90;;;;;;5093323;28;20386;-74
2023/01/12 06:22:17;;;;;;;4.32;1.60;;;8.90;99.90;;;;;;5093206;28;20718;-73
2023/01/12 06:24:45;;;;;;;3.65;1.55;;;9.00;99.90;;;;;;5092295;28;20396;-74
2023/01/12 06:27:10;;;;;;;4.30;1.80;;;8.90;99.90;;;;;;5092822;28;20402;-74
2023/01/12 06:29:35;;;;;;;4.57;1.27;;;9.00;99.90;;;;;;5092628;28;20755;-74
2023/01/12 06:32:01;;;;;;;5.50;1.63;;;9.00;99.90;;;;;;5092895;28;20931;-74
2023/01/12 06:34:27;;;;;;;3.40;1.20;;;9.00;99.90;;;;;;5090206;28;20389;-74
2023/01/12 06:36:52;;;;;;;5.90;1.80;;;9.10;99.90;;;;;;5091226;28;20394;-73
2023/01/12 06:39:18;;;;;;;6.72;1.50;;;9.10;99.90;;;;;;5092696;28;20440;-74
2023/01/12 06:44:27;;;;;;;5.78;1.58;;;9.10;99.90;;;;;;5088535;28;20451;-74
2023/01/12 06:46:53;;;;;;;4.47;1.30;;;9.10;99.90;;;;;;5092070;28;20906;-74
2023/01/12 06:49:18;;;;;;;4.90;1.43;;;9.10;99.90;;;;;;5087867;28;20391;-74
2023/01/12 06:51:46;;;;;;;5.30;1.40;;;9.10;99.90;;;;;;5072472;28;20391;-74
2023/01/12 06:54:12;;;;;;;3.13;0.95;;;9.10;99.90;;;;;;5071766;28;20390;-74
2023/01/12 06:56:37;;;;;;;4.07;1.20;;;9.10;99.90;;;;;;5080880;28;20398;-74
2023/01/12 06:59:03;;;;;;;3.37;0.97;;;9.10;99.90;;;;;;5092699;28;20476;-73
2023/01/12 07:01:28;;;;;;;5.60;1.10;;;9.20;99.90;;;;;;5088464;28;20380;-74
2023/01/12 07:03:54;;;;;;;4.60;1.10;;;9.20;99.90;;;;;;5091188;28;20424;-74
2023/01/12 07:06:19;;;;;;;3.65;1.10;;;9.20;99.90;;;;;;5092226;28;20398;-73
2023/01/12 07:08:45;;;;;;;3.50;1.00;;;9.10;99.90;;;;;;5080465;28;20458;-74
2023/01/12 07:11:15;;;;;;;3.90;1.30;;;9.10;99.90;;;;;;5085621;28;20413;-73
2023/01/12 07:13:41;;;;;;;3.58;1.20;;;9.10;13.50;;;;;;5091281;28;20408;-74
2023/01/12 07:16:06;;;;;;;2.37;0.70;;;9.10;99.90;;;;;;5091832;28;20463;-74
2023/01/12 07:18:32;;;;;;;4.43;1.10;;;9.10;99.90;;;;;;5092068;28;20732;-73
2023/01/12 07:20:57;;;;;;;4.60;1.50;;;9.10;99.90;;;;;;5092139;28;20389;-74
2023/01/12 07:23:23;;;;;;;2.45;1.42;;;9.00;1.00;;;;;;5091285;28;20903;-73
2023/01/12 07:25:49;;;;;;;5.18;1.00;;;9.00;99.90;;;;;;5091970;28;20393;-74
2023/01/12 07:28:14;;;;;;;4.70;1.50;;;9.10;99.90;;;;;;5091783;28;20400;-74
2023/01/12 07:30:40;;;;;;;3.40;1.10;;;9.10;99.90;;;;;;5090735;28;20397;-74
2023/01/12 07:33:11;;;;;;;5.40;1.43;;;9.10;99.90;;;;;;5090778;28;20760;-74
2023/01/12 07:35:37;;;;;;;2.63;1.13;;;9.10;99.90;;;;;;5073203;28;20394;-74
2023/01/12 07:38:03;;;;;;;3.40;1.15;;;9.20;99.90;;;;;;5089904;28;20444;-74
2023/01/12 07:40:28;;;;;;;3.83;1.15;;;9.10;99.90;;;;;;5091618;28;20382;-74
2023/01/12 07:43:02;;;;;;;2.58;1.00;;;9.20;99.90;;;;;;5090541;28;20891;-74
2023/01/12 07:45:28;;;;;;;3.83;0.98;;;9.20;99.90;;;;;;5091251;28;20817;-74
2023/01/12 07:47:54;;;;;;;4.97;1.60;;;9.30;99.90;;;;;;5091221;28;20497;-74
2023/01/12 07:50:24;;;;;;;4.35;1.60;;;9.30;99.90;;;;;;5091541;28;20401;-74
2023/01/12 07:52:50;;;;;;;5.82;1.55;;;9.30;99.90;;;;;;5090707;28;20393;-73
2023/01/12 07:55:18;;;;;;;3.70;1.30;;;9.40;99.90;;;;;;5091492;28;20845;-74
2023/01/12 07:57:53;;;;;;;4.80;1.23;;;9.30;99.90;;;;;;5091215;28;20900;-74
2023/01/12 08:00:22;;;;;;;5.83;1.33;;;9.40;99.90;;;;;;5091461;28;20409;-74
2023/01/12 08:02:51;;;;;;;2.40;1.10;;;9.40;99.90;;;;;;5090585;28;20382;-74
2023/01/12 08:05:18;;;;;;;2.63;1.05;;;9.40;99.90;;;;;;5091420;28;20394;-74
2023/01/12 08:07:43;;;;;;;2.10;0.80;;;9.50;99.90;;;;;;5088043;28;20453;-74
2023/01/12 08:10:10;;;;;;;5.87;1.13;;;9.50;99.90;;;;;;5070979;28;20399;-73
2023/01/12 08:12:36;;;;;;;3.43;1.10;;;9.60;99.90;;;;;;5070051;28;20379;-74
2023/01/12 08:15:03;;;;;;;4.68;1.05;;;9.60;99.90;;;;;;5076286;28;20443;-74
2023/01/12 08:17:33;;;;;;;3.20;1.08;;;9.60;99.90;;;;;;5091046;28;20475;-75
2023/01/12 08:20:06;;;;;;;2.22;1.10;;;9.70;99.90;;;;;;5090624;28;20394;-74
2023/01/12 08:22:36;;;;;;;5.00;0.95;;;9.70;99.90;;;;;;5082054;28;20790;-73
2023/01/12 08:25:09;;;;;;;5.38;1.25;;;9.80;99.90;;;;;;5090625;28;20385;-74
2023/01/12 08:27:38;;;;;;;3.30;0.90;;;9.80;99.90;;;;;;5090695;28;20585;-73
2023/01/12 08:30:07;;;;;;;4.80;1.20;;;9.80;99.90;;;;;;5090927;28;20381;-74
2023/01/12 08:32:34;;;;;;;3.92;1.60;;;9.80;99.90;;;;;;5090208;28;20458;-74
2023/01/12 08:35:02;;;;;;;4.45;1.30;;;9.80;99.90;;;;;;5090377;28;20390;-73
2023/01/12 08:37:29;;;;;;;6.00;1.40;;;9.90;99.20;;;;;;5090594;28;20921;-75
2023/01/12 08:39:55;;;;;;;2.60;1.00;;;9.90;99.10;;;;;;5087952;28;20393;-74
2023/01/12 08:42:24;;;;;;;2.60;1.40;;;9.90;99.40;;;;;;5090301;28;20382;-74
2023/01/12 08:44:49;;;;;;;3.45;1.20;;;9.90;99.10;;;;;;5071607;28;20418;-74
2023/01/12 08:47:17;;;;;;;3.10;1.38;;;9.90;99.60;;;;;;5090429;28;20429;-74
2023/01/12 08:49:44;;;;;;;3.08;1.00;;;9.90;99.60;;;;;;5089707;28;20465;-74
2023/01/12 08:52:10;;;;;;;4.25;0.90;;;9.90;99.80;;;;;;5090239;28;20725;-74
2023/01/12 08:54:36;;;;;;;2.90;1.00;;;10.00;99.80;;;;;;5089795;28;20474;-74
2023/01/12 08:57:01;;;;;;;4.20;0.90;;;10.00;99.90;;;;;;5068622;28;20916;-74
2023/01/12 08:59:27;;;;;;;2.50;0.87;;;10.00;99.90;;;;;;5070233;28;20751;-74
2023/01/12 09:01:52;;;;;;;3.40;0.60;;;10.00;99.90;;;;;;5071826;28;20379;-74
2023/01/12 09:04:18;;;;;;;3.95;0.90;;;10.00;99.90;;;;;;5089400;28;20401;-74
2023/01/12 09:06:45;;;;;;;2.55;0.80;;;10.00;99.90;;;;;;5090251;28;20492;-74
2023/01/12 09:09:13;;;;;;;2.88;0.90;;;10.00;99.90;;;;;;5075133;28;20380;-74
2023/01/12 09:11:41;;;;;;;4.38;0.77;;;10.10;99.90;;;;;;5070420;28;20852;-74
2023/01/12 09:14:07;;;;;;;1.20;0.50;;;10.10;99.90;;;;;;5073860;28;20415;-73
2023/01/12 09:16:33;;;;;;;2.40;0.80;;;10.10;99.90;;;;;;5090431;28;20456;-73
2023/01/12 09:18:59;;;;;;;3.83;0.88;;;10.10;99.90;;;;;;5091721;28;20436;-74
2023/01/12 09:21:26;;;;;;;2.20;0.77;;;10.10;99.90;;;;;;5094549;28;20757;-74
2023/01/12 09:23:53;;;;;;;1.77;0.63;;;10.10;99.90;;;;;;5093742;28;20389;-74
2023/01/12 09:26:20;;;;;;;2.65;0.95;;;10.10;99.90;;;;;;5075924;28;20401;-73
2023/01/12 09:28:46;;;;;;;1.60;0.60;;;10.00;99.90;;;;;;5075896;28;20419;-73
2023/01/12 09:31:14;;;;;;;2.78;0.80;;;10.00;99.90;;;;;;5076285;28;20382;-74
2023/01/12 09:33:41;;;;;;;1.95;0.75;;;10.00;99.90;;;;;;5093166;28;20473;-74
2023/01/12 09:36:15;;;;;;;2.50;0.70;;;10.00;99.90;;;;;;5094011;28;20433;-74
2023/01/12 09:38:43;;;;;;;1.27;0.75;;;10.10;99.90;;;;;;5094179;28;20380;-74
2023/01/12 09:46:57;;;;;;;1.08;0.60;;;10.10;99.90;;;;;;5094289;28;20409;-74
2023/01/12 09:46:57;;;;;;;1.60;0.80;;;10.10;53.40;;;;;;5093832;28;20822;-74
2023/01/12 09:49:28;;;;;;;1.30;0.70;;;10.10;99.90;;;;;;5093761;28;20947;-74
2023/01/12 09:52:17;;;;;;;1.20;0.60;;;10.10;99.90;;;;;;5094031;28;20373;-73
2023/01/12 09:54:46;;;;;;;4.32;0.90;;;10.00;99.90;;;;;;5092190;28;20481;-74
2023/01/12 09:57:46;;;;;;;2.50;1.17;;;10.00;1.00;;;;;;5093800;28;20431;-73
2023/01/12 10:00:18;;;;;;;4.65;1.00;;;10.00;1.00;;;;;;5093423;28;20447;-74
2023/01/12 10:03:08;;;;;;;4.72;1.00;;;10.10;1.00;;;;;;5092995;28;20392;-73
2023/01/12 10:05:47;;;;;;;2.85;0.85;;;10.10;1.00;;;;;;5093526;28;20465;-74
2023/01/12 10:08:26;;;;;;;2.50;1.40;;;10.20;99.90;;;;;;5093414;28;20393;-74
2023/01/12 10:11:18;;;;;;;7.55;1.77;;;10.20;99.90;;;;;;5073314;28;20368;-74
2023/01/12 10:14:24;;;;;;;5.10;1.10;;;10.30;99.90;;;;;;5073201;28;20854;-75
2023/01/12 10:17:29;;;;;;;4.28;0.90;;;10.30;99.90;;;;;;5026871;28;20403;-73
2023/01/12 10:20:06;;;;;;;4.40;1.27;;;10.40;99.90;;;;;;5055186;28;20395;-74
2023/01/12 10:22:47;;;;;;;1.20;0.50;;;10.30;99.90;;;;;;5084038;28;20386;-74
2023/01/12 10:25:28;;;;;;;3.55;0.90;;;10.20;99.90;;;;;;5092203;28;20378;-74
2023/01/12 10:27:56;;;;;;;5.28;1.17;;;10.30;99.90;;;;;;5093097;28;20481;-74
2023/01/12 10:30:27;;;;;;;4.07;0.75;;;10.30;99.90;;;;;;5092025;28;20383;-74
2023/01/12 10:32:52;;;;;;;3.80;1.25;;;10.30;99.90;;;;;;5092393;28;20401;-74
2023/01/12 10:35:20;;;;;;;2.90;1.07;;;10.20;1.00;;;;;;5092978;28;20957;-74
2023/01/12 10:37:54;;;;;;;3.60;1.10;;;10.20;1.00;;;;;;5093161;28;20494;-73
2023/01/12 10:40:25;;;;;;;2.93;1.20;;;10.20;1.00;;;;;;5092676;28;20389;-74
2023/01/12 10:43:18;;;;;;;4.22;1.20;;;10.20;1.00;;;;;;5054105;28;20392;-74
2023/01/12 10:45:53;;;;;;;3.70;1.08;;;10.30;1.00;;;;;;5068487;28;20445;-74
2023/01/12 10:48:21;;;;;;;1.52;0.60;;;10.20;1.00;;;;;;5072952;28;20391;-75
2023/01/12 10:51:01;;;;;;;6.00;0.80;;;10.30;1.00;;;;;;5075139;28;20391;-74
2023/01/12 10:53:34;;;;;;;2.88;0.70;;;10.30;1.00;;;;;;5092217;28;20390;-74
2023/01/12 10:56:01;;;;;;;2.40;1.10;;;10.30;1.00;;;;;;5092740;28;20412;-74
2023/01/12 10:58:32;;;;;;;2.65;0.80;;;10.30;1.00;;;;;;5093207;28;20379;-74
2023/01/12 11:00:57;;;;;;;6.30;1.27;;;10.20;99.90;;;;;;5093142;28;20386;-74
2023/01/12 11:03:36;;;;;;;3.80;1.10;;;10.10;99.90;;;;;;5092440;28;20445;-73
2023/01/12 11:06:15;;;;;;;2.40;0.70;;;10.20;99.90;;;;;;5092489;28;20804;-74
2023/01/12 11:08:41;;;;;;;4.03;1.00;;;10.30;24.20;;;;;;5063332;28;20380;-73
2023/01/12 11:11:29;;;;;;;1.80;0.70;;;10.50;1.00;;;;;;5081450;28;20408;-73
2023/01/12 11:13:58;;;;;;;3.60;0.93;;;10.50;99.90;;;;;;5091428;28;20386;-74
2023/01/12 11:16:37;;;;;;;4.03;0.80;;;10.40;1.00;;;;;;5091998;28;20409;-71
2023/01/12 11:19:11;;;;;;;3.90;0.80;;;10.40;1.00;;;;;;5092377;28;20420;-73
2023/01/12 11:21:41;;;;;;;2.00;0.70;;;10.30;1.00;;;;;;5092409;28;20377;-74
2023/01/12 11:24:32;;;;;;;3.78;0.90;;;10.30;99.90;;;;;;5091544;28;20378;-73
2023/01/12 11:27:04;;;;;;;2.00;0.85;;;10.30;73.70;;;;;;5091432;28;20406;-74
2023/01/12 11:29:47;;;;;;;3.30;1.00;;;10.20;99.90;;;;;;5092188;28;20382;-74
2023/01/12 11:32:34;;;;;;;1.98;0.80;;;10.40;99.90;;;;;;5092155;28;20461;-74
2023/01/12 11:35:09;;;;;;;2.70;0.80;;;10.30;99.90;;;;;;5092016;28;20398;-73
2023/01/12 11:37:38;;;;;;;2.42;0.60;;;10.30;99.90;;;;;;5092177;28;20386;-74
2023/01/12 11:40:24;;;;;;;2.08;0.70;;;10.30;99.90;;;;;;5091977;28;20477;-74
2023/01/12 11:45:56;;;;;;;1.90;0.60;;;10.40;99.90;;;;;;5092066;28;20894;-74
2023/01/12 11:48:34;;;;;;;2.20;0.80;;;10.40;99.90;;;;;;5091527;28;20388;-73
2023/01/12 11:51:00;;;;;;;1.80;0.80;;;10.40;99.90;;;;;;5091426;28;20499;-74
2023/01/12 11:53:26;;;;;;;3.25;0.73;;;10.30;99.90;;;;;;5090212;28;21014;-74
2023/01/12 11:55:57;;;;;;;2.60;1.10;;;10.50;99.90;;;;;;5091157;28;20381;-74
2023/01/12 11:58:37;;;;;;;2.20;0.70;;;10.50;99.90;;;;;;5091391;28;20366;-74
2023/01/12 12:01:34;;;;;;;2.08;0.70;;;10.50;99.90;;;;;;5090951;28;20420;-74
2023/01/12 12:04:05;;;;;;;2.50;0.80;;;10.50;99.90;;;;;;5090317;28;20468;-74
2023/01/12 12:06:56;;;;;;;1.60;0.90;;;10.40;99.90;;;;;;5091012;28;20910;-73
2023/01/12 12:09:31;;;;;;;2.13;0.73;;;10.40;99.90;;;;;;5084485;28;20910;-74
2023/01/12 12:12:10;;;;;;;1.42;0.60;;;10.40;99.90;;;;;;5091087;28;20477;-74
2023/01/12 12:14:55;;;;;;;2.20;0.70;;;10.40;99.90;;;;;;5090305;28;20760;-74
2023/01/12 12:17:48;;;;;;;2.15;0.73;;;10.40;99.90;;;;;;5072957;28;20425;-74
2023/01/12 12:20:23;;;;;;;2.42;0.80;;;10.40;99.90;;;;;;5091094;28;20752;-74
2023/01/12 12:23:00;;;;;;;1.90;0.70;;;10.50;99.90;;;;;;5091136;28;20378;-74
2023/01/12 12:26:08;;;;;;;3.45;0.80;;;10.50;99.90;;;;;;5090853;28;20884;-74
2023/01/12 12:28:45;;;;;;;2.03;0.80;;;10.50;99.90;;;;;;5056620;28;20817;-72
2023/01/12 12:31:51;;;;;;;1.92;0.70;;;10.50;99.90;;;;;;5072455;28;20385;-74
2023/01/12 12:34:54;;;;;;;2.40;0.70;;;10.50;99.90;;;;;;5068040;28;20384;-75
2023/01/12 12:37:39;;;;;;;2.22;0.90;;;10.40;99.90;;;;;;5061555;28;20410;-75
2023/01/12 12:45:15;;;;;;;1.45;0.77;;;10.50;99.90;;;;;;5073560;28;20883;-74
2023/01/12 12:46:53;;;;;;;2.30;0.60;;;10.50;99.90;;;;;;5090039;28;20435;-75
2023/01/12 12:49:24;;;;;;;2.35;0.90;;;10.50;99.90;;;;;;5075909;28;20503;-75
2023/01/12 12:51:51;;;;;;;3.88;1.15;;;10.70;99.90;;;;;;5090624;28;20824;-74
2023/01/12 12:54:20;;;;;;;2.85;0.80;;;10.70;99.90;;;;;;5089061;28;20489;-74
2023/01/12 12:56:47;;;;;;;0.93;0.60;;;10.60;99.90;;;;;;5090435;28;20386;-75
2023/01/12 12:59:37;;;;;;;2.33;1.10;;;10.70;99.90;;;;;;5090607;28;20374;-74
2023/01/12 13:02:02;;;;;;;3.72;1.20;;;10.70;99.90;;;;;;5090066;28;20390;-74
2023/01/12 13:04:45;;;;;;;1.65;0.80;;;10.60;99.90;;;;;;5089698;28;20401;-74
2023/01/12 13:07:15;;;;;;;2.90;0.90;;;10.70;99.90;;;;;;5071859;28;20429;-75
2023/01/12 13:09:41;;;;;;;1.08;0.70;;;10.70;99.90;;;;;;5084082;28;20428;-76
2023/01/12 13:12:28;;;;;;;1.40;0.85;;;10.80;99.90;;;;;;5071656;28;20489;-75
2023/01/12 13:15:16;;;;;;;2.58;0.70;;;10.80;99.90;;;;;;5071953;28;20378;-75
2023/01/12 13:17:43;;;;;;;2.58;0.80;;;10.80;99.90;;;;;;5090381;28;20872;-74
2023/01/12 13:20:09;;;;;;;3.20;0.90;;;10.80;99.90;;;;;;5090158;28;20484;-75
2023/01/12 13:22:40;;;;;;;1.80;0.80;;;10.80;99.90;;;;;;5089498;28;20875;-74
2023/01/12 13:25:09;;;;;;;1.70;1.00;;;10.80;99.90;;;;;;5089825;28;20421;-75
2023/01/12 13:28:00;;;;;;;2.75;0.90;;;10.80;99.90;;;;;;5070356;28;20394;-74
2023/01/12 13:30:29;;;;;;;2.67;1.30;;;10.70;99.90;;;;;;5082440;28;20408;-71
2023/01/12 13:33:19;;;;;;;4.35;0.90;;;10.70;99.90;;;;;;5088722;28;20386;-72
2023/01/12 13:35:45;;;;;;;2.40;1.10;;;10.80;99.90;;;;;;5091191;22;20526;-75
2023/01/12 13:38:50;;;;;;;1.80;0.80;;;10.70;99.90;;;;;;5051073;28;20399;-74
2023/01/12 13:44:09;;;;;;;1.50;1.10;;;10.70;99.90;;;;;;5069034;28;20957;-76
2023/01/12 13:46:43;;;;;;;2.58;0.98;;;10.70;99.90;;;;;;5052669;28;20868;-74
2023/01/12 13:49:28;;;;;;;3.60;0.90;;;10.70;99.90;;;;;;5049180;28;20401;-74
2023/01/12 13:52:00;;;;;;;3.20;1.00;;;10.70;99.90;;;;;;5031575;28;20389;-75
2023/01/12 13:54:26;;;;;;;2.10;0.80;;;10.70;99.90;;;;;;5046427;28;20437;-75
2023/01/12 13:56:55;;;;;;;2.92;0.80;;;10.80;99.90;;;;;;5047212;28;20472;-74